createdAt,value
2023-12-21T00:00:58.960Z,97721.56
2023-12-21T00:03:27.454Z,97719.13
2023-12-21T00:05:55.870Z,97710.59
2023-12-21T00:08:24.360Z,97707.13
2023-12-21T00:10:54.257Z,97708.06
2023-12-21T00:13:24.108Z,97692.00
2023-12-21T00:15:52.566Z,97698.78
2023-12-21T00:18:21.079Z,97689.53
2023-12-21T00:20:49.624Z,97681.88
2023-12-21T00:23:18.057Z,97679.38
2023-12-21T00:25:46.689Z,97683.72
2023-12-21T00:28:16.918Z,97676.97
2023-12-21T00:30:45.750Z,97667.63
2023-12-21T00:33:14.568Z,97667.66
2023-12-21T00:35:43.163Z,97663.44
2023-12-21T00:38:11.662Z,97652.34
2023-12-21T00:40:40.199Z,97640.47
2023-12-21T00:43:08.800Z,97636.28
2023-12-21T00:45:38.628Z,97625.22
2023-12-21T00:48:07.808Z,97628.56
2023-12-21T00:50:36.298Z,97626.03
2023-12-21T00:53:04.815Z,97621.78
2023-12-21T00:55:33.325Z,97610.72
2023-12-21T00:58:01.955Z,97597.09
2023-12-21T01:00:30.378Z,97589.47
2023-12-21T01:03:00.732Z,97596.25
2023-12-21T01:05:29.171Z,97598.78
2023-12-21T01:07:57.610Z,97588.59
2023-12-21T01:10:26.545Z,97587.72
2023-12-21T01:12:57.237Z,97586.84
2023-12-21T01:15:25.662Z,97583.44
2023-12-21T01:17:54.094Z,97575.75
2023-12-21T01:20:23.997Z,97577.47
2023-12-21T01:22:52.506Z,97573.25
2023-12-21T01:25:21.164Z,97579.25
2023-12-21T01:27:49.915Z,97569.75
2023-12-21T01:30:18.614Z,97561.31
2023-12-21T01:32:47.508Z,97552.88
2023-12-21T01:35:16.283Z,97545.22
2023-12-21T01:37:46.547Z,97543.59
2023-12-21T01:40:15.963Z,97542.63
2023-12-21T01:42:45.044Z,97527.38
2023-12-21T01:45:14.454Z,97527.41
2023-12-21T01:47:43.159Z,97535.84
2023-12-21T01:50:12.927Z,97522.25
2023-12-21T01:52:42.222Z,97502.72
2023-12-21T01:55:12.347Z,97501.03
2023-12-21T01:57:40.908Z,97505.25
2023-12-21T02:00:10.385Z,97500.13
2023-12-21T02:02:39.062Z,97505.25
2023-12-21T02:05:08.231Z,97504.38
2023-12-21T02:07:36.911Z,97484.00
2023-12-21T02:10:06.411Z,97480.59
2023-12-21T02:12:36.540Z,97468.69
2023-12-21T02:15:05.808Z,97469.63
2023-12-21T02:17:35.999Z,97461.09
2023-12-21T02:20:24.842Z,97453.47
2023-12-21T02:22:55.215Z,97456.03
2023-12-21T02:25:25.183Z,97451.78
2023-12-21T02:27:53.829Z,97455.19
2023-12-21T02:30:22.330Z,97451.75
2023-12-21T02:32:51.014Z,97445.81
2023-12-21T02:35:20.682Z,97441.56
2023-12-21T02:37:49.126Z,97448.41
2023-12-21T02:40:17.657Z,97450.94
2023-12-21T02:42:49.595Z,97450.97
2023-12-21T02:45:18.455Z,97443.25
2023-12-21T02:47:47.417Z,97439.94
2023-12-21T02:50:16.280Z,97424.69
2023-12-21T02:52:45.103Z,97449.34
2023-12-21T02:55:14.252Z,97445.09
2023-12-21T02:57:43.037Z,97434.06
2023-12-21T03:00:14.268Z,97430.59
2023-12-21T03:02:42.955Z,97422.94
2023-12-21T03:05:12.202Z,97422.03
2023-12-21T03:07:40.771Z,97423.75
2023-12-21T03:10:10.888Z,97422.03
2023-12-21T03:12:39.579Z,97423.78
2023-12-21T03:15:09.057Z,97415.31
2023-12-21T03:17:38.894Z,97411.84
2023-12-21T03:20:09.095Z,97411.00
2023-12-21T03:22:37.830Z,97410.13
2023-12-21T03:25:07.165Z,97412.75
2023-12-21T03:27:36.047Z,97404.19
2023-12-21T03:30:04.648Z,97400.78
2023-12-21T03:32:34.053Z,97411.00
2023-12-21T03:35:04.437Z,97399.13
2023-12-21T03:37:34.106Z,97403.28
2023-12-21T03:40:02.636Z,97405.00
2023-12-21T03:42:32.489Z,97397.28
2023-12-21T03:45:00.884Z,97403.28
2023-12-21T03:47:29.293Z,97392.13
2023-12-21T03:49:58.264Z,97400.50
2023-12-21T03:52:28.959Z,97400.47
2023-12-21T03:54:57.425Z,97396.38
2023-12-21T03:57:25.856Z,97388.88
2023-12-21T03:59:54.429Z,97395.59
2023-12-21T04:02:22.904Z,97387.13
2023-12-21T04:04:51.383Z,97384.47
2023-12-21T04:07:19.855Z,97382.75
2023-12-21T04:09:49.822Z,97393.88
2023-12-21T04:12:18.516Z,97382.81
2023-12-21T04:14:46.900Z,97387.84
2023-12-21T04:17:15.334Z,97385.44
2023-12-21T04:19:43.890Z,97392.09
2023-12-21T04:22:12.342Z,97376.84
2023-12-21T04:24:40.783Z,97389.50
2023-12-21T04:27:10.587Z,97385.22
2023-12-21T04:29:39.999Z,97383.50
2023-12-21T04:32:08.996Z,97399.69
2023-12-21T04:34:37.940Z,97383.53
2023-12-21T04:37:06.505Z,97388.69
2023-12-21T04:39:34.906Z,97390.34
2023-12-21T04:42:03.453Z,97391.16
2023-12-21T04:44:33.320Z,97396.28
2023-12-21T04:47:01.698Z,97394.56
2023-12-21T04:49:30.707Z,97390.28
2023-12-21T04:51:59.169Z,97390.22
2023-12-21T04:54:27.582Z,97389.41
2023-12-21T04:56:55.972Z,97392.09
2023-12-21T04:59:24.909Z,97396.28
2023-12-21T05:01:57.556Z,97405.56
2023-12-21T05:04:26.853Z,97404.69
2023-12-21T05:06:55.372Z,97394.44
2023-12-21T05:09:24.030Z,97396.09
2023-12-21T05:11:52.555Z,97408.91
2023-12-21T05:14:21.155Z,97384.19
2023-12-21T05:16:49.573Z,97396.97
2023-12-21T05:19:19.581Z,97385.03
2023-12-21T05:21:48.186Z,97397.84
2023-12-21T05:24:16.774Z,97410.59
2023-12-21T05:26:45.698Z,97403.69
2023-12-21T05:29:14.174Z,97416.56
2023-12-21T05:31:43.451Z,97399.66
2023-12-21T05:34:12.200Z,97415.88
2023-12-21T05:36:42.381Z,97414.22
2023-12-21T05:39:17.892Z,97403.94
2023-12-21T05:41:48.239Z,97411.50
2023-12-21T05:44:16.802Z,97409.00
2023-12-21T05:46:45.674Z,97414.00
2023-12-21T05:49:14.206Z,97406.41
2023-12-21T05:51:44.086Z,97416.53
2023-12-21T05:54:12.567Z,97423.28
2023-12-21T05:56:41.009Z,97418.19
2023-12-21T05:59:10.930Z,97418.22
2023-12-21T06:01:40.038Z,97425.03
2023-12-21T06:04:08.706Z,97432.66
2023-12-21T06:06:37.666Z,97435.25
2023-12-21T06:09:08.764Z,97443.66
2023-12-21T06:11:37.272Z,97443.56
2023-12-21T06:14:05.670Z,97447.06
2023-12-21T06:16:35.103Z,97443.66
2023-12-21T06:19:04.864Z,97447.84
2023-12-21T06:21:33.361Z,97439.34
2023-12-21T06:24:01.718Z,97445.25
2023-12-21T06:26:31.519Z,97442.69
2023-12-21T06:29:00.232Z,97455.47
2023-12-21T06:31:28.706Z,97455.47
2023-12-21T06:33:57.911Z,97463.94
2023-12-21T06:36:26.377Z,97451.13
2023-12-21T06:38:54.858Z,97451.06
2023-12-21T06:41:23.371Z,97450.28
2023-12-21T06:43:53.165Z,97449.34
2023-12-21T06:46:22.599Z,97454.44
2023-12-21T06:48:51.288Z,97457.69
2023-12-21T06:51:19.724Z,97461.28
2023-12-21T06:53:48.495Z,97459.66
2023-12-21T06:56:28.957Z,97462.31
2023-12-21T06:59:04.793Z,97460.47
2023-12-21T07:01:33.669Z,97456.91
2023-12-21T07:04:02.431Z,97456.09
2023-12-21T07:06:31.015Z,97456.84
2023-12-21T07:09:00.117Z,97458.53
2023-12-21T07:11:28.794Z,97468.19
2023-12-21T07:13:57.299Z,97467.22
2023-12-21T07:16:27.401Z,97472.31
2023-12-21T07:18:56.029Z,97479.91
2023-12-21T07:21:24.614Z,97479.84
2023-12-21T07:23:53.047Z,97485.03
2023-12-21T07:26:21.464Z,97485.88
2023-12-21T07:28:50.371Z,97485.09
2023-12-21T07:31:18.825Z,97488.53
2023-12-21T07:33:49.249Z,97490.25
2023-12-21T07:36:17.981Z,97497.13
2023-12-21T07:38:46.886Z,97494.59
2023-12-21T07:41:15.728Z,97498.81
2023-12-21T07:43:46.131Z,97501.28
2023-12-21T07:46:15.230Z,97509.69
2023-12-21T07:48:44.013Z,97507.91
2023-12-21T07:51:13.896Z,97512.19
2023-12-21T07:53:42.582Z,97519.00
2023-12-21T07:56:11.157Z,97514.63
2023-12-21T07:58:39.688Z,97517.22
2023-12-21T08:01:08.723Z,97519.84
2023-12-21T08:03:37.525Z,97523.22
2023-12-21T08:06:06.744Z,97519.88
2023-12-21T08:08:41.481Z,97519.75
2023-12-21T08:11:13.900Z,97529.97
2023-12-21T08:13:42.269Z,97523.94
2023-12-21T08:16:10.894Z,97528.38
2023-12-21T08:18:39.372Z,97546.09
2023-12-21T08:21:07.882Z,97535.75
2023-12-21T08:23:37.735Z,97529.97
2023-12-21T08:26:07.041Z,97535.06
2023-12-21T08:28:35.701Z,97537.59
2023-12-21T08:31:04.844Z,97529.81
2023-12-21T08:33:33.755Z,97537.56
2023-12-21T08:36:02.283Z,97536.72
2023-12-21T08:38:30.755Z,97541.84
2023-12-21T08:41:03.939Z,97544.28
2023-12-21T08:43:33.848Z,97545.94
2023-12-21T08:46:02.560Z,97544.09
2023-12-21T08:48:31.200Z,97540.59
2023-12-21T08:50:59.626Z,97535.47
2023-12-21T08:53:28.108Z,97530.44
2023-12-21T08:55:56.605Z,97527.00
2023-12-21T08:58:26.444Z,97517.78
2023-12-21T09:00:55.751Z,97538.84
2023-12-21T09:03:24.342Z,97548.16
2023-12-21T09:05:52.885Z,97559.78
2023-12-21T09:08:21.406Z,97551.34
2023-12-21T09:10:50.096Z,97547.13
2023-12-21T09:13:18.822Z,97543.06
2023-12-21T09:15:48.787Z,97539.63
2023-12-21T09:18:17.376Z,97536.34
2023-12-21T09:20:46.042Z,97530.38
2023-12-21T09:23:15.162Z,97538.94
2023-12-21T09:25:43.977Z,97545.69
2023-12-21T09:28:18.751Z,97548.28
2023-12-21T09:30:48.805Z,97546.56
2023-12-21T09:33:19.698Z,97545.63
2023-12-21T09:35:49.588Z,97564.66
2023-12-21T09:38:18.424Z,97567.16
2023-12-21T09:40:47.410Z,97577.34
2023-12-21T09:43:20.246Z,97580.84
2023-12-21T09:45:52.279Z,97579.25
2023-12-21T09:48:22.316Z,97577.66
2023-12-21T09:50:51.715Z,97592.19
2023-12-21T09:53:23.787Z,97598.13
2023-12-21T09:55:53.662Z,97586.28
2023-12-21T09:58:22.332Z,97593.16
2023-12-21T10:00:52.297Z,97578.75
2023-12-21T10:03:20.835Z,97574.53
2023-12-21T10:05:49.951Z,97557.59
2023-12-21T10:08:19.512Z,97572.88
2023-12-21T10:10:48.726Z,97572.03
2023-12-21T10:13:17.639Z,97579.69
2023-12-21T10:15:48.168Z,97568.66
2023-12-21T10:18:18.433Z,97576.16
2023-12-21T10:20:47.335Z,97560.00
2023-12-21T10:23:16.390Z,97564.16
2023-12-21T10:25:47.622Z,97554.75
2023-12-21T10:28:16.367Z,97556.47
2023-12-21T10:30:44.807Z,97547.13
2023-12-21T10:33:13.825Z,97550.56
2023-12-21T10:35:43.882Z,97576.09
2023-12-21T10:38:12.442Z,97571.72
2023-12-21T10:40:41.131Z,97570.06
2023-12-21T10:43:09.961Z,97572.44
2023-12-21T10:45:38.605Z,97563.31
2023-12-21T10:48:10.158Z,97578.53
2023-12-21T10:50:39.336Z,97574.44
2023-12-21T10:53:11.653Z,97579.53
2023-12-21T10:55:40.294Z,97590.47
2023-12-21T10:58:09.067Z,97593.81
2023-12-21T11:00:37.921Z,97584.44
2023-12-21T11:03:10.476Z,97582.78
2023-12-21T11:05:41.682Z,97578.47
2023-12-21T11:08:14.574Z,97575.19
2023-12-21T11:10:45.435Z,97579.41
2023-12-21T11:13:14.507Z,97577.75
2023-12-21T11:15:43.235Z,97582.03
2023-12-21T11:18:14.146Z,97582.03
2023-12-21T11:20:48.413Z,97561.50
2023-12-21T11:23:21.121Z,97568.31
2023-12-21T11:25:57.582Z,97572.44
2023-12-21T11:28:29.059Z,97565.59
2023-12-21T11:30:57.719Z,97565.47
2023-12-21T11:33:33.048Z,97556.84
2023-12-21T11:36:03.972Z,97544.94
2023-12-21T11:38:52.537Z,97555.53
2023-12-21T11:41:26.159Z,97557.06
2023-12-21T11:43:58.921Z,97545.06
2023-12-21T11:46:27.721Z,97547.56
2023-12-21T11:48:56.370Z,97545.78
2023-12-21T11:51:24.792Z,97555.25
2023-12-21T11:53:54.795Z,97545.97
2023-12-21T11:56:23.375Z,97559.41
2023-12-21T11:58:53.329Z,97546.69
2023-12-21T12:01:27.321Z,97549.44
2023-12-21T12:03:56.204Z,97543.47
2023-12-21T12:06:27.153Z,97556.34
2023-12-21T12:08:57.703Z,97551.16
2023-12-21T12:11:27.815Z,97555.34
2023-12-21T12:13:59.705Z,97540.09
2023-12-21T12:16:29.155Z,97550.38
2023-12-21T12:18:57.890Z,97550.31
2023-12-21T12:21:27.354Z,97567.56
2023-12-21T12:23:57.288Z,97562.44
2023-12-21T12:26:25.989Z,97557.25
2023-12-21T12:28:54.959Z,97550.38
2023-12-21T12:31:23.618Z,97552.91
2023-12-21T12:33:52.331Z,97571.00
2023-12-21T12:36:21.310Z,97571.81
2023-12-21T12:38:51.032Z,97564.97
2023-12-21T12:41:22.418Z,97559.88
2023-12-21T12:43:51.333Z,97568.31
2023-12-21T12:46:22.051Z,97555.69
2023-12-21T12:48:50.974Z,97553.13
2023-12-21T12:51:20.834Z,97546.25
2023-12-21T12:53:49.538Z,97559.03
2023-12-21T12:56:18.142Z,97569.25
2023-12-21T12:58:56.028Z,97549.63
2023-12-21T13:01:29.604Z,97554.69
2023-12-21T13:04:00.129Z,97530.16
2023-12-21T13:06:30.216Z,97551.44
2023-12-21T13:08:59.019Z,97559.88
2023-12-21T13:11:27.649Z,97553.97
2023-12-21T13:13:57.725Z,97555.63
2023-12-21T13:16:26.383Z,97546.44
2023-12-21T13:18:55.202Z,97548.94
2023-12-21T13:21:23.684Z,97535.28
2023-12-21T13:23:52.447Z,97542.91
2023-12-21T13:26:21.147Z,97526.69
2023-12-21T13:28:50.208Z,97528.34
2023-12-21T13:31:20.564Z,97528.38
2023-12-21T13:33:50.159Z,97530.00
2023-12-21T13:36:18.898Z,97524.88
2023-12-21T13:38:48.760Z,97529.25
2023-12-21T13:41:17.316Z,97521.53
2023-12-21T13:43:47.607Z,97520.63
2023-12-21T13:46:19.069Z,97517.22
2023-12-21T13:48:49.139Z,97515.59
2023-12-21T13:51:17.902Z,97511.25
2023-12-21T13:53:46.922Z,97503.66
2023-12-21T13:56:15.698Z,97499.34
2023-12-21T13:58:44.203Z,97506.19
2023-12-21T14:01:12.761Z,97508.75
2023-12-21T14:03:41.456Z,97506.94
2023-12-21T14:06:12.753Z,97494.97
2023-12-21T14:08:41.291Z,97502.69
2023-12-21T14:11:11.526Z,97491.59
2023-12-21T14:13:40.335Z,97481.41
2023-12-21T14:16:08.971Z,97483.13
2023-12-21T14:18:37.720Z,97481.50
2023-12-21T14:21:06.676Z,97476.19
2023-12-21T14:23:36.511Z,97474.53
2023-12-21T14:26:05.213Z,97472.91
2023-12-21T14:28:39.565Z,97474.75
2023-12-21T14:31:15.387Z,97475.56
2023-12-21T14:33:44.064Z,97475.59
2023-12-21T14:36:12.552Z,97474.59
2023-12-21T14:38:42.388Z,97478.03
2023-12-21T14:41:12.277Z,97465.31
2023-12-21T14:43:40.935Z,97462.69
2023-12-21T14:46:09.582Z,97468.66
2023-12-21T14:48:38.329Z,97471.13
2023-12-21T14:51:07.469Z,97473.78
2023-12-21T14:53:36.419Z,97467.75
2023-12-21T14:56:06.551Z,97460.16
2023-12-21T14:58:34.987Z,97466.03
2023-12-21T15:01:04.225Z,97463.56
2023-12-21T15:03:32.811Z,97471.16
2023-12-21T15:06:01.956Z,97482.25
2023-12-21T15:08:31.046Z,97485.66
2023-12-21T15:10:59.773Z,97495.84
2023-12-21T15:13:30.413Z,97484.81
2023-12-21T15:15:59.224Z,97477.09
2023-12-21T15:18:27.783Z,97472.84
2023-12-21T15:20:56.372Z,97490.00
2023-12-21T15:23:24.853Z,97474.81
2023-12-21T15:25:53.435Z,97471.22
2023-12-21T15:28:22.071Z,97472.91
2023-12-21T15:30:51.903Z,97477.97
2023-12-21T15:33:20.754Z,97476.31
2023-12-21T15:35:49.765Z,97478.03
2023-12-21T15:38:18.716Z,97468.66
2023-12-21T15:40:47.316Z,97474.66
2023-12-21T15:43:15.978Z,97467.91
2023-12-21T15:45:45.254Z,97467.91
2023-12-21T15:48:15.515Z,97471.25
2023-12-21T15:50:47.679Z,97466.13
2023-12-21T15:53:16.173Z,97466.91
2023-12-21T15:55:44.707Z,97466.13
2023-12-21T15:58:13.226Z,97460.94
2023-12-21T16:00:41.684Z,97467.72
2023-12-21T16:03:10.144Z,97474.59
2023-12-21T16:05:39.995Z,97479.75
2023-12-21T16:08:10.210Z,97456.00
2023-12-21T16:10:39.261Z,97476.28
2023-12-21T16:13:07.958Z,97472.94
2023-12-21T16:15:36.371Z,97485.78
2023-12-21T16:18:05.994Z,97482.34
2023-12-21T16:20:34.567Z,97473.88
2023-12-21T16:23:05.300Z,97480.75
2023-12-21T16:25:34.126Z,97472.28
2023-12-21T16:28:03.300Z,97475.72
2023-12-21T16:30:32.681Z,97463.72
2023-12-21T16:33:01.262Z,97467.16
2023-12-21T16:35:29.928Z,97462.09
2023-12-21T16:37:58.728Z,97454.31
2023-12-21T16:40:28.699Z,97452.63
2023-12-21T16:42:57.303Z,97469.63
2023-12-21T16:45:27.346Z,97473.00
2023-12-21T16:47:58.401Z,97461.03
2023-12-21T16:50:29.612Z,97462.69
2023-12-21T16:52:58.334Z,97454.22
2023-12-21T16:55:28.303Z,97460.16
2023-12-21T16:57:57.700Z,97460.00
2023-12-21T17:00:26.364Z,97452.47
2023-12-21T17:02:54.963Z,97452.47
2023-12-21T17:05:23.619Z,97445.56
2023-12-21T17:07:52.307Z,97440.59
2023-12-21T17:10:20.830Z,97442.22
2023-12-21T17:12:50.972Z,97448.19
2023-12-21T17:15:19.961Z,97452.66
2023-12-21T17:17:49.070Z,97446.59
2023-12-21T17:20:19.350Z,97452.47
2023-12-21T17:22:47.790Z,97465.25
2023-12-21T17:25:16.654Z,97461.81
2023-12-21T17:27:46.586Z,97456.72
2023-12-21T17:30:19.105Z,97450.72
2023-12-21T17:32:47.859Z,97441.31
2023-12-21T17:35:16.560Z,97452.41
2023-12-21T17:37:46.609Z,97447.22
2023-12-21T17:40:18.077Z,97449.00
2023-12-21T17:42:47.250Z,97444.75
2023-12-21T17:45:18.575Z,97452.41
2023-12-21T17:47:47.521Z,97445.66
2023-12-21T17:50:16.236Z,97447.34
2023-12-21T17:52:45.189Z,97445.59
2023-12-21T17:55:14.643Z,97455.81
2023-12-21T17:57:43.146Z,97457.63
2023-12-21T18:00:13.068Z,97458.34
2023-12-21T18:02:43.892Z,97453.25
2023-12-21T18:05:12.400Z,97441.25
2023-12-21T18:07:40.904Z,97449.78
2023-12-21T18:10:10.357Z,97443.78
2023-12-21T18:12:39.030Z,97446.28
2023-12-21T18:15:10.346Z,97451.53
2023-12-21T18:17:39.062Z,97452.41
2023-12-21T18:20:10.311Z,97444.75
2023-12-21T18:22:38.966Z,97446.38
2023-12-21T18:25:07.963Z,97442.06
2023-12-21T18:27:36.802Z,97436.03
2023-12-21T18:30:06.876Z,97425.81
2023-12-21T18:32:37.309Z,97427.59
2023-12-21T18:35:08.607Z,97424.25
2023-12-21T18:37:37.694Z,97422.47
2023-12-21T18:40:07.270Z,97427.63
2023-12-21T18:42:37.081Z,97430.28
2023-12-21T18:45:06.300Z,97428.50
2023-12-21T18:47:34.922Z,97427.69
2023-12-21T18:50:12.045Z,97418.38
2023-12-21T18:52:43.632Z,97409.81
2023-12-21T18:55:12.305Z,97406.34
2023-12-21T18:57:50.003Z,97414.94
2023-12-21T19:00:20.268Z,97420.72
2023-12-21T19:02:51.803Z,97420.84
2023-12-21T19:05:48.314Z,97415.69
2023-12-21T19:08:19.810Z,97408.03
2023-12-21T19:10:51.938Z,97416.50
2023-12-21T19:13:20.760Z,97414.00
2023-12-21T19:15:49.333Z,97410.41
2023-12-21T19:18:20.790Z,97407.09
2023-12-21T19:20:50.985Z,97407.16
2023-12-21T19:23:24.246Z,97411.34
2023-12-21T19:25:59.102Z,97405.53
2023-12-21T19:28:29.879Z,97414.06
2023-12-21T19:30:58.795Z,97415.66
2023-12-21T19:33:27.313Z,97413.94
2023-12-21T19:35:58.708Z,97402.19
2023-12-21T19:38:27.507Z,97411.41
2023-12-21T19:40:56.037Z,97407.94
2023-12-21T19:43:25.089Z,97405.53
2023-12-21T19:46:29.009Z,97411.47
2023-12-21T19:49:05.958Z,97410.69
2023-12-21T19:51:35.972Z,97409.91
2023-12-21T19:54:11.234Z,97408.28
2023-12-21T19:56:46.114Z,97413.22
2023-12-21T19:59:20.525Z,97409.03
2023-12-21T20:01:55.436Z,97410.72
2023-12-21T20:04:25.384Z,97420.09
2023-12-21T20:06:55.276Z,97421.06
2023-12-21T20:09:23.813Z,97427.13
2023-12-21T20:11:52.867Z,97419.25
2023-12-21T20:14:21.800Z,97429.47
2023-12-21T20:16:50.623Z,97420.91
2023-12-21T20:19:21.725Z,97421.78
2023-12-21T20:21:51.859Z,97414.94
2023-12-21T20:24:21.669Z,97417.63
2023-12-21T20:26:50.213Z,97419.19
2023-12-21T20:29:18.606Z,97416.56
2023-12-21T20:31:47.120Z,97422.59
2023-12-21T20:34:15.920Z,97420.84
2023-12-21T20:36:44.395Z,97414.94
2023-12-21T20:39:12.791Z,97422.59
2023-12-21T20:41:42.604Z,97415.00
2023-12-21T20:44:11.244Z,97420.94
2023-12-21T20:46:40.050Z,97419.22
2023-12-21T20:49:08.528Z,97421.81
2023-12-21T20:51:36.940Z,97426.91
2023-12-21T20:54:05.662Z,97421.75
2023-12-21T20:56:34.499Z,97420.03
2023-12-21T20:59:04.485Z,97415.00
2023-12-21T21:01:32.953Z,97398.88
2023-12-21T21:04:01.507Z,97413.25
2023-12-21T21:06:30.004Z,97415.91
2023-12-21T21:08:58.608Z,97415.97
2023-12-21T21:11:29.406Z,97408.22
2023-12-21T21:13:57.909Z,97414.28
2023-12-21T21:16:27.974Z,97413.41
2023-12-21T21:18:56.417Z,97399.91
2023-12-21T21:21:25.678Z,97394.84
2023-12-21T21:23:54.141Z,97391.50
2023-12-21T21:26:22.607Z,97401.53
2023-12-21T21:28:51.097Z,97400.63
2023-12-21T21:31:19.674Z,97402.31
2023-12-21T21:33:51.602Z,97397.28
2023-12-21T21:36:20.570Z,97398.16
2023-12-21T21:38:49.200Z,97392.97
2023-12-21T21:41:18.109Z,97393.03
2023-12-21T21:43:47.024Z,97393.06
2023-12-21T21:46:15.461Z,97391.56
2023-12-21T21:48:44.601Z,97387.09
2023-12-21T21:51:17.356Z,97388.03
2023-12-21T21:53:46.781Z,97383.78
2023-12-21T21:56:19.717Z,97390.41
2023-12-21T21:58:48.840Z,97377.81
2023-12-21T22:01:17.754Z,97383.63
2023-12-21T22:03:46.959Z,97391.34
2023-12-21T22:06:17.074Z,97395.50
2023-12-21T22:08:45.572Z,97388.75
2023-12-21T22:11:14.284Z,97380.44
2023-12-21T22:13:43.211Z,97374.44
2023-12-21T22:16:11.748Z,97381.28
2023-12-21T22:18:40.298Z,97365.91
2023-12-21T22:21:09.828Z,97362.47
2023-12-21T22:23:40.454Z,97365.94
2023-12-21T22:26:09.249Z,97356.63
2023-12-21T22:28:37.663Z,97364.22
2023-12-21T22:31:06.490Z,97365.13
2023-12-21T22:33:35.089Z,97361.78
2023-12-21T22:36:03.821Z,97359.19
2023-12-21T22:38:33.254Z,97363.50
2023-12-21T22:41:03.307Z,97361.72
2023-12-21T22:43:39.622Z,97360.13
2023-12-21T22:46:11.603Z,97356.72
2023-12-21T22:48:40.333Z,97356.63
2023-12-21T22:51:08.853Z,97348.19
2023-12-21T22:53:37.240Z,97358.31
2023-12-21T22:56:07.547Z,97357.44
2023-12-21T22:58:36.054Z,97354.09
2023-12-21T23:01:04.603Z,97344.72
2023-12-21T23:03:33.061Z,97344.81
2023-12-21T23:06:01.623Z,97343.94
2023-12-21T23:08:30.264Z,97334.69
2023-12-21T23:10:58.809Z,97332.19
2023-12-21T23:13:29.785Z,97341.56
2023-12-21T23:15:58.243Z,97353.44
2023-12-21T23:18:26.826Z,97345.91
2023-12-21T23:20:55.316Z,97349.34
2023-12-21T23:23:24.348Z,97351.97
2023-12-21T23:25:52.889Z,97352.75
2023-12-21T23:28:21.430Z,97351.03
2023-12-21T23:30:53.231Z,97351.75
2023-12-21T23:33:23.044Z,97349.38
2023-12-21T23:35:51.507Z,97349.31
2023-12-21T23:38:19.975Z,97351.09
2023-12-21T23:40:48.513Z,97346.00
2023-12-21T23:43:17.038Z,97345.22
2023-12-21T23:45:45.460Z,97345.22
2023-12-21T23:48:15.471Z,97344.44
2023-12-21T23:50:43.982Z,97326.69
2023-12-21T23:53:13.484Z,97331.69
2023-12-21T23:55:41.931Z,97336.88
2023-12-21T23:58:10.384Z,97344.56
